Latest Coastal Weather Observations for Cape Leeuwin

IDW60701

Issued at 9:23 pm WST Monday 27 February 2017 (issued every 10 minutes, with the page automatically refreshed every 10 minutes)

About coastal observations | Map of coastal stations | Coastal observations for WA | Marine services | Other Formats
Station Details ID: 009518 Name: CAPE LEEUWIN Lat: -34.37 Lon: 115.14 Height: 13.0 m
Data from the previous 72 hours. | See also: Recent months at Cape Leeuwin
Date/Time
WST
Temp
°C
Wind Pressure Rain since
9am
mm
Weather Cloud Vis
km
Sea
Height
m
Swell
Dir  Spd
kts
Gust
kts
hPa Trend Height
m
Period
s
Dir
27/09:00pm 19.8 SSE 12 16 1018.6 - 0.0 - - - - - - -
27/08:30pm 19.7 SSE 9 13 1018.3 - 0.0 - - - - - - -
27/08:00pm 19.7 SSE 9 12 1017.9 - 0.0 - - - - - - -
27/07:30pm 19.8 SSE 9 12 1017.4 - 0.0 - - - - - - -
27/07:00pm 19.9 SSE 9 11 1017.3 - 0.0 - - - - - - -
27/06:30pm 20.6 SSE 10 12 1016.8 - 0.0 - - - - - - -
27/06:00pm 20.2 SE 10 14 1016.3 - 0.0 - - - - - - -
27/05:30pm 20.3 SSE 9 12 1016.8 - 0.0 - - - - - - -
27/05:00pm 20.7 SE 9 11 1016.2 - 0.0 - - - - - - -
27/04:30pm 21.0 SSE 8 10 1016.5 - 0.0 - - - - - - -
27/04:00pm 21.9 SSE 7 9 1016.6 - 0.0 - - - - - - -
27/03:30pm 22.1 SSE 7 9 1016.4 - 0.0 - - - - - - -
27/03:00pm 21.8 S 7 10 1016.6 - 0.0 - - - - - - -
27/02:30pm 21.8 SSW 10 13 1016.5 - 0.0 - - - - - - -
27/02:00pm 22.8 SSW 9 11 1016.5 - 0.0 - - - - - - -
27/01:30pm 21.5 S 7 10 1016.6 - 0.0 - - - - - - -
27/01:00pm 22.0 S 8 11 1016.7 - 0.0 - - - - - - -
27/12:30pm 21.4 SE 5 7 1016.9 - 0.0 - - - - - - -
27/12:00pm 20.7 S 7 10 1017.1 - 0.0 - - - - - - -
27/11:30am 21.1 ESE 8 10 1016.8 - 0.0 - - - - - - -
27/11:00am 21.1 ESE 7 8 1017.2 - 0.0 - - - - - - -
27/10:30am 20.7 E 8 10 1017.3 - 0.0 - - - - - - -
27/10:00am 20.8 E 8 10 1017.5 - 0.0 - - - - - - -
27/09:30am 20.3 E 8 10 1017.3 - 0.0 - - - - - - -
27/09:00am 19.9 ENE 8 9 1017.1 - 0.0 - - - - - - -
27/08:30am 19.3 ENE 9 11 1016.9 - 0.0 - - - - - - -
27/08:00am 18.9 NE 9 11 1016.6 - 0.0 - - - - - - -
27/07:30am 18.8 ENE 8 10 1016.4 - 0.0 - - - - - - -
27/07:00am 18.2 ENE 9 11 1016.0 - 0.0 - - - - - - -
27/06:30am 17.9 NE 7 9 1015.8 - 0.0 - - - - - - -
27/06:00am 17.4 NE 7 10 1015.7 - 0.0 - - - - - - -
27/05:30am 17.6 NE 5 7 1015.6 - 0.0 - - - - - - -
27/05:00am 17.6 NE 7 9 1015.4 - 0.0 - - - - - - -
27/04:30am 17.6 NE 8 10 1015.3 - 0.0 - - - - - - -
27/04:00am 17.6 NE 6 8 1015.4 - 0.0 - - - - - - -
27/03:30am 17.0 NE 7 11 1015.4 - 0.0 - - - - - - -
27/03:00am 17.1 NE 9 11 1015.2 - 0.0 - - - - - - -
27/02:30am 17.3 NE 6 8 1015.2 - 0.0 - - - - - - -
27/02:00am 17.9 NE 5 6 1015.5 - 0.0 - - - - - - -
27/01:30am 19.0 ESE 5 7 1015.2 - 0.0 - - - - - - -
27/01:00am 18.8 SE 5 6 1015.3 - 0.0 - - - - - - -
27/12:30am 18.5 SSE 5 5 1015.3 - 0.0 - - - - - - -
27/12:00am 18.5 SSE 4 6 1015.3 - 0.0 - - - - - - -
 
Date/Time
WST
Temp
°C
Wind Pressure Rain since
9am
mm
Weather Cloud Vis
km
Sea
Height
m
Swell
Dir  Spd
kts
Gust
kts
hPa Trend Height
m
Period
s
Dir
26/11:30pm 18.5 S 5 7 1015.5 - 0.0 - - - - - - -
26/11:00pm 18.6 S 5 7 1015.6 - 0.0 - - - - - - -
26/10:30pm 18.7 SSW 7 9 1015.9 - 0.0 - - - - - - -
26/10:00pm 18.5 S 5 7 1016.0 - 0.0 - - - - - - -
26/09:30pm 18.6 S 5 6 1015.9 - 0.0 - - - - - - -
26/09:00pm 18.7 S 5 6 1015.6 - 0.0 - - - - - - -
26/08:30pm 18.8 S 5 7 1015.5 - 0.0 - - - - - - -
26/08:00pm 18.9 S 6 7 1015.3 - 0.0 - - - - - - -
26/07:30pm 19.3 S 6 8 1014.8 - 0.0 - - - - - - -
26/07:00pm 19.6 S 7 8 1014.7 - 0.0 - - - - - - -
26/06:30pm 20.2 S 7 8 1014.7 - 0.0 - - - - - - -
26/06:00pm 21.0 S 6 8 1014.6 - 0.0 - - - - - - -
26/05:30pm 21.3 S 7 9 1014.4 - 0.0 - - - - - - -
26/05:00pm 22.0 SSW 8 10 1014.3 - 0.0 - - - - - - -
26/04:30pm 22.5 SSW 8 10 1014.3 - 0.0 - - - - - - -
26/04:00pm 23.4 SSW 9 11 1014.1 - 0.0 - - - - - - -
26/03:30pm 23.1 SSW 8 10 1014.1 - 0.0 - - - - - - -
26/03:00pm 23.4 SSW 8 11 1014.1 - 0.0 - - - - - - -
26/02:30pm 23.3 SSW 8 10 1014.1 - 0.0 - - - - - - -
26/02:00pm 23.1 SSW 8 10 1014.3 - 0.0 - - - - - - -
26/01:30pm 22.7 S 8 10 1014.1 - 0.0 - - - - - - -
26/01:00pm 23.2 S 8 10 1014.1 - 0.0 - - - - - - -
26/12:30pm 22.6 S 9 11 1014.1 - 0.0 - - - - - - -
26/12:00pm 22.6 S 8 10 1014.1 - 0.0 - - - - - - -
26/11:30am 23.0 S 10 12 1014.2 - 0.0 - - - - - - -
26/11:00am 22.6 S 9 12 1014.3 - 0.0 - - - - - - -
26/10:30am 21.9 S 9 12 1014.4 - 0.0 - - - - - - -
26/10:00am 21.7 S 7 10 1014.5 - 0.0 - - - - - - -
26/09:30am 21.2 S 8 10 1014.6 - 0.0 - - - - - - -
26/09:00am 20.9 S 8 10 1014.4 - 0.0 - - - - - - -
26/08:30am 20.5 S 8 10 1014.3 - 0.0 - - - - - - -
26/08:00am 19.7 SSE 8 10 1014.2 - 0.0 - - - - - - -
26/07:30am 19.1 SSE 9 11 1014.1 - 0.0 - - - - - - -
26/07:00am 18.5 SSE 9 11 1014.1 - 0.0 - - - - - - -
26/06:30am 18.0 S 10 13 1013.9 - 0.0 - - - - - - -
26/06:00am 17.6 SSE 10 13 1013.6 - 0.0 - - - - - - -
26/05:30am 17.7 SSE 11 14 1013.5 - 0.0 - - - - - - -
26/05:00am 17.7 SSE 11 14 1013.3 - 0.0 - - - - - - -
26/04:30am 17.7 SSE 11 13 1013.2 - 0.0 - - - - - - -
26/04:00am 17.8 SSE 11 13 1013.3 - 0.0 - - - - - - -
26/03:30am 17.8 SSE 11 14 1013.3 - 0.0 - - - - - - -
26/03:00am 17.9 SE 12 14 1013.0 - 0.0 - - - - - - -
26/02:30am 17.9 SE 12 14 1013.3 - 0.0 - - - - - - -
26/02:00am 18.0 SE 13 15 1013.5 - 0.0 - - - - - - -
26/01:30am 17.9 SSE 13 16 1013.7 - 0.0 - - - - - - -
26/01:00am 18.1 SSE 12 16 1013.9 - 0.0 - - - - - - -
26/12:30am 18.0 SE 12 15 1014.1 - 0.0 - - - - - - -
26/12:00am 18.1 SSE 12 15 1014.4 - 0.0 - - - - - - -
 
Date/Time
WST
Temp
°C
Wind Pressure Rain since
9am
mm
Weather Cloud Vis
km
Sea
Height
m
Swell
Dir  Spd
kts
Gust
kts
hPa Trend Height
m
Period
s
Dir
25/11:30pm 18.0 SSE 12 16 1014.6 - 0.0 - - - - - - -
25/11:00pm 18.2 S 14 18 1014.8 - 0.0 - - - - - - -
25/10:30pm 18.5 S 13 19 1015.0 - 0.0 - - - - - - -
25/10:00pm 18.5 S 13 18 1015.1 - 0.0 - - - - - - -
25/09:30pm 18.4 S 13 17 1015.2 - 0.0 - - - - - - -
25/09:00pm 18.6 SSE 11 15 1015.0 - 0.0 - - - - - - -
25/08:30pm 18.6 S 13 16 1014.8 - 0.0 - - - - - - -
25/08:00pm 18.7 S 12 16 1014.6 - 0.0 - - - - - - -
25/07:30pm 18.7 S 11 15 1014.4 - 0.0 - - - - - - -
25/07:00pm 18.8 S 10 14 1014.1 - 0.0 - - - - - - -
25/06:30pm 19.0 S 10 13 1013.9 - 0.0 - - - - - - -
25/06:00pm 19.6 S 10 13 1013.8 - 0.0 - - - - - - -
25/05:30pm 20.0 S 10 13 1013.7 - 0.0 - - - - - - -
25/05:00pm 21.0 S 10 13 1013.7 - 0.0 - - - - - - -
25/04:30pm 21.6 SSW 10 12 1013.8 - 0.0 - - - - - - -
25/04:00pm 21.6 SSW 9 12 1013.7 - 0.0 - - - - - - -
25/03:30pm 22.8 SSW 9 11 1013.8 - 0.0 - - - - - - -
25/03:00pm 23.0 SSW 9 11 1014.0 - 0.0 - - - - - - -
25/02:30pm 23.8 SSW 9 11 1014.1 - 0.0 - - - - - - -
25/02:00pm 23.1 SSW 8 9 1014.2 - 0.0 - - - - - - -
25/01:30pm 23.1 SSW 9 11 1014.6 - 0.0 - - - - - - -
25/01:00pm 22.8 SSW 8 10 1014.8 - 0.0 - - - - - - -
25/12:30pm 22.3 SW 7 9 1014.9 - 0.0 - - - - - - -
25/12:00pm 21.5 WSW 6 7 1015.1 - 0.0 - - - - - - -
25/11:30am 21.3 SW 6 7 1015.5 - 0.0 - - - - - - -
25/11:00am 20.8 SSW 6 8 1016.0 - 0.0 - - - - - - -
25/10:30am 20.9 SSW 7 8 1016.3 - 0.0 - - - - - - -
25/10:00am 20.6 S 6 8 1016.2 - 0.0 - - - - - - -
25/09:30am 20.1 SE 4 6 1016.1 - 0.0 - - - - - - -
25/09:00am 20.1 SSE 5 6 1016.3 - 0.0 - - - - - - -
25/08:30am 20.0 SE 5 7 1016.4 - 0.0 - - - - - - -
25/08:00am 19.6 SE 5 7 1016.5 - 0.0 - - - - - - -
25/07:30am 19.8 SSE 6 8 1016.6 - 0.0 - - - - - - -
25/07:00am 20.5 SE 4 5 1016.4 - 0.0 - - - - - - -
25/06:30am 19.5 SE 4 7 1016.4 - 0.0 - - - - - - -
25/06:00am 19.9 SE 6 9 1016.1 - 0.0 - - - - - - -
25/05:30am 19.6 E 7 9 1015.8 - 0.0 - - - - - - -
25/05:00am 19.9 E 6 8 1015.7 - 0.0 - - - - - - -
25/04:30am 20.4 SE 9 11 1015.5 - 0.0 - - - - - - -
25/04:00am 21.9 E 10 11 1015.5 - 0.0 - - - - - - -
25/03:30am 21.9 ENE 9 11 1015.7 - 0.0 - - - - - - -
25/03:00am 20.2 E 10 11 1015.9 - 0.0 - - - - - - -
25/02:30am 19.8 ESE 9 11 1016.2 - 0.0 - - - - - - -
25/02:00am 19.8 SE 9 10 1016.6 - 0.0 - - - - - - -
25/01:30am 20.4 ESE 9 11 1016.8 - 0.0 - - - - - - -
25/01:00am 20.1 ESE 11 12 1016.9 - 0.0 - - - - - - -
25/12:30am 20.2 E 12 13 1017.2 - 0.0 - - - - - - -
25/12:00am 20.2 E 11 13 1017.7 - 0.0 - - - - - - -
 
Date/Time
WST
Temp
°C
Wind Pressure Rain since
9am
mm
Weather Cloud Vis
km
Sea
Height
m
Swell
Dir  Spd
kts
Gust
kts
hPa Trend Height
m
Period
s
Dir
24/11:30pm 20.3 E 11 13 1018.1 - 0.0 - - - - - - -
24/11:00pm 20.3 E 11 13 1018.4 - 0.0 - - - - - - -
24/10:30pm 20.3 E 9 9 1018.8 - 0.0 - - - - - - -
24/10:00pm 20.4 E 9 10 1019.0 - 0.0 - - - - - - -
24/09:30pm 20.5 E 9 10 1019.2 - 0.0 - - - - - - -

Other Formats:

Comma delimited format used in spreadsheet applications
http://www.bom.gov.au/fwo/IDW60701/IDW60701.94601.axf

JavaScript Object Notation format (JSON) in row-major order
http://www.bom.gov.au/fwo/IDW60701/IDW60701.94601.json